Time;durP1;ratioP1;P1;durP2;ratioP2;P2;SDS_P1;SDS_P2;PMS_P1;PMS_P2;Temp;Humidity;BMP_temperature;BMP_pressure;BME280_temperature;BME280_humidity;BME280_pressure;Samples;Min_cycle;Max_cycle;Signal;HPM_P1;HPM_P2
2023/11/27 00:01:08;;;;;;;12.77;4.10;;;4.00;99.90;;;;;;6208086;23;20087;-56
2023/11/27 00:03:34;;;;;;;8.13;3.92;;;4.00;99.90;;;;;;6208473;22;19997;-54
2023/11/27 00:06:00;;;;;;;16.77;4.38;;;4.00;99.90;;;;;;6206335;23;20005;-56
2023/11/27 00:08:25;;;;;;;9.45;4.03;;;4.00;99.90;;;;;;6207071;23;20066;-55
2023/11/27 00:10:51;;;;;;;11.52;4.15;;;4.00;99.90;;;;;;6206244;23;20001;-53
2023/11/27 00:13:17;;;;;;;14.98;4.18;;;4.00;99.90;;;;;;6206672;23;20037;-54
2023/11/27 00:15:42;;;;;;;14.27;3.80;;;4.00;99.90;;;;;;6205273;23;20395;-54
2023/11/27 00:18:08;;;;;;;13.70;4.72;;;4.10;99.90;;;;;;6206773;23;20001;-54
2023/11/27 00:20:34;;;;;;;15.85;4.70;;;4.10;99.90;;;;;;6206558;23;20009;-54
2023/11/27 00:22:59;;;;;;;9.38;4.47;;;4.10;99.90;;;;;;6206078;23;20011;-56
2023/11/27 00:25:28;;;;;;;12.05;3.70;;;4.10;99.90;;;;;;6206356;23;19997;-52
2023/11/27 00:27:53;;;;;;;9.73;4.38;;;4.10;99.90;;;;;;6206567;23;20001;-53
2023/11/27 00:30:19;;;;;;;15.52;3.75;;;4.10;99.90;;;;;;6208330;23;20036;-56
2023/11/27 00:32:45;;;;;;;16.83;3.88;;;4.10;99.90;;;;;;6207766;23;20019;-56
2023/11/27 00:35:10;;;;;;;15.25;4.05;;;4.10;99.90;;;;;;6224875;22;20379;-56
2023/11/27 00:37:36;;;;;;;14.73;4.28;;;4.10;99.90;;;;;;6207927;23;20403;-56
2023/11/27 00:40:02;;;;;;;9.90;4.70;;;4.10;99.90;;;;;;6205837;23;20053;-56
2023/11/27 00:42:27;;;;;;;11.48;4.07;;;4.10;99.90;;;;;;6207771;23;20000;-56
2023/11/27 00:44:53;;;;;;;12.52;4.72;;;4.10;99.90;;;;;;6208535;23;20072;-57
2023/11/27 00:47:19;;;;;;;16.23;4.30;;;4.00;99.90;;;;;;6207699;23;20477;-53
2023/11/27 00:49:44;;;;;;;11.07;3.55;;;4.00;99.90;;;;;;6207331;23;20001;-54
2023/11/27 00:52:10;;;;;;;10.45;3.75;;;4.00;99.90;;;;;;6207879;23;20004;-56
2023/11/27 00:54:35;;;;;;;6.88;3.58;;;4.00;99.90;;;;;;6207566;23;19997;-57
2023/11/27 00:57:01;;;;;;;10.80;4.43;;;3.90;99.90;;;;;;6312674;22;20383;-52
2023/11/27 00:59:27;;;;;;;12.00;4.22;;;4.00;99.90;;;;;;6205925;23;20008;-55
2023/11/27 01:01:52;;;;;;;9.05;3.47;;;3.90;99.90;;;;;;6207215;23;20373;-56
2023/11/27 01:04:18;;;;;;;15.60;6.10;;;3.90;99.90;;;;;;6205448;23;19996;-55
2023/11/27 01:06:43;;;;;;;12.55;3.67;;;3.90;99.90;;;;;;6312559;22;20032;-54
2023/11/27 01:09:09;;;;;;;12.90;4.10;;;3.90;99.90;;;;;;6206287;23;20005;-54
2023/11/27 01:11:34;;;;;;;13.38;5.05;;;3.90;99.90;;;;;;6205770;23;20031;-57
2023/11/27 01:14:00;;;;;;;10.57;3.78;;;3.90;99.90;;;;;;6207094;23;20008;-58
2023/11/27 01:16:26;;;;;;;9.43;4.03;;;3.90;99.90;;;;;;6206304;23;20025;-59
2023/11/27 01:18:52;;;;;;;11.10;4.50;;;3.90;99.90;;;;;;6204859;23;20075;-54
2023/11/27 01:21:18;;;;;;;18.13;4.45;;;3.90;99.90;;;;;;6206208;23;20054;-55
2023/11/27 01:23:44;;;;;;;16.55;4.65;;;3.80;99.90;;;;;;6204244;23;20000;-56
2023/11/27 01:26:09;;;;;;;7.35;3.75;;;3.90;99.90;;;;;;6204711;23;20080;-55
2023/11/27 01:28:36;;;;;;;7.00;3.38;;;3.90;99.90;;;;;;6309038;22;20019;-56
2023/11/27 01:31:04;;;;;;;5.85;3.30;;;3.80;99.90;;;;;;6201682;23;20011;-55
2023/11/27 01:33:30;;;;;;;13.20;4.07;;;3.80;99.90;;;;;;6203837;23;20016;-57
2023/11/27 01:35:56;;;;;;;12.07;4.75;;;3.90;99.90;;;;;;6203195;23;20200;-54
2023/11/27 01:38:21;;;;;;;12.00;4.22;;;3.90;99.90;;;;;;6204577;23;20453;-53
2023/11/27 01:40:47;;;;;;;13.40;4.38;;;3.90;99.90;;;;;;6204948;23;20022;-52
2023/11/27 01:43:16;;;;;;;12.55;3.50;;;3.90;99.90;;;;;;6309577;22;20001;-55
2023/11/27 01:45:42;;;;;;;13.95;4.28;;;3.90;99.90;;;;;;6205658;23;19997;-53
2023/11/27 01:48:12;;;;;;;8.25;3.35;;;3.90;99.90;;;;;;6202590;23;20012;-55
2023/11/27 01:50:38;;;;;;;6.32;3.72;;;3.90;99.90;;;;;;6202829;23;20075;-56
2023/11/27 01:53:04;;;;;;;12.85;4.38;;;3.90;99.90;;;;;;6204761;23;20428;-55
2023/11/27 01:55:30;;;;;;;8.52;4.40;;;3.90;99.90;;;;;;6205441;23;20019;-55
2023/11/27 01:57:57;;;;;;;19.13;4.15;;;3.90;99.90;;;;;;6205145;23;20004;-56
2023/11/27 02:00:23;;;;;;;12.35;3.92;;;3.90;99.90;;;;;;6204056;23;20023;-56
2023/11/27 02:02:49;;;;;;;14.13;4.65;;;4.00;99.90;;;;;;6204892;23;20024;-54
2023/11/27 02:05:16;;;;;;;11.15;4.07;;;3.90;99.90;;;;;;6203981;23;20005;-52
2023/11/27 02:07:42;;;;;;;12.23;3.72;;;4.00;99.90;;;;;;6204977;23;20029;-52
2023/11/27 02:10:09;;;;;;;8.27;4.20;;;4.00;99.90;;;;;;6203584;23;20080;-57
2023/11/27 02:12:35;;;;;;;17.70;5.82;;;4.00;99.90;;;;;;6203075;23;20012;-59
2023/11/27 02:15:00;;;;;;;12.77;4.10;;;3.90;99.90;;;;;;6204778;23;20312;-56
2023/11/27 02:17:26;;;;;;;7.18;4.10;;;3.90;99.90;;;;;;6157229;22;1150403;-56
2023/11/27 02:19:51;;;;;;;6.28;4.40;;;4.00;99.90;;;;;;6205411;23;20422;-56
2023/11/27 02:22:17;;;;;;;7.93;3.70;;;3.90;99.90;;;;;;6205801;23;20455;-55
2023/11/27 02:24:43;;;;;;;9.00;4.03;;;3.90;99.90;;;;;;6206743;23;19997;-54
2023/11/27 02:27:08;;;;;;;21.08;3.92;;;3.90;99.90;;;;;;6206112;23;20374;-58
2023/11/27 02:29:34;;;;;;;9.82;3.72;;;4.00;99.90;;;;;;6206499;23;20001;-55
2023/11/27 02:32:03;;;;;;;11.15;3.97;;;3.90;99.90;;;;;;6215865;22;20004;-56
2023/11/27 02:34:28;;;;;;;10.30;4.38;;;4.00;99.90;;;;;;6204516;23;20072;-55
2023/11/27 02:36:54;;;;;;;9.80;3.92;;;4.00;99.90;;;;;;6206757;23;20498;-54
2023/11/27 02:39:21;;;;;;;7.22;3.35;;;4.00;99.90;;;;;;6206496;23;20005;-56
2023/11/27 02:41:47;;;;;;;11.48;4.47;;;4.00;99.90;;;;;;6206326;23;20394;-53
2023/11/27 02:44:14;;;;;;;8.00;3.88;;;3.90;99.90;;;;;;6206831;23;20059;-53
2023/11/27 02:46:41;;;;;;;17.90;4.40;;;3.90;99.90;;;;;;6206973;23;19997;-56
2023/11/27 02:49:07;;;;;;;7.63;4.07;;;3.90;99.90;;;;;;6207154;23;20015;-55
2023/11/27 02:51:39;;;;;;;12.45;3.17;;;3.90;99.90;;;;;;6204849;23;20580;-54
2023/11/27 02:54:05;;;;;;;7.10;3.75;;;3.90;99.90;;;;;;6207929;23;20061;-55
2023/11/27 02:56:31;;;;;;;15.60;5.22;;;3.90;99.90;;;;;;6205648;23;20043;-56
2023/11/27 02:58:56;;;;;;;10.20;3.55;;;3.90;99.90;;;;;;6207424;23;20012;-52
2023/11/27 03:01:26;;;;;;;8.63;3.63;;;3.90;99.90;;;;;;6207232;23;20024;-56
2023/11/27 03:03:52;;;;;;;8.02;3.75;;;3.90;99.90;;;;;;6206824;23;20446;-55
2023/11/27 03:06:18;;;;;;;9.10;3.47;;;3.90;99.90;;;;;;6284519;22;20306;-54
2023/11/27 03:08:44;;;;;;;13.60;4.78;;;3.80;99.90;;;;;;6331498;22;20018;-56
2023/11/27 03:11:12;;;;;;;7.95;3.47;;;3.90;99.90;;;;;;6331143;22;20025;-56
2023/11/27 03:13:39;;;;;;;7.65;3.50;;;3.90;99.90;;;;;;6330660;22;20006;-54
2023/11/27 03:16:05;;;;;;;5.20;3.30;;;3.90;99.90;;;;;;6230550;22;20034;-53
2023/11/27 03:18:31;;;;;;;10.68;5.05;;;3.90;99.90;;;;;;6207367;23;20001;-53
2023/11/27 03:20:57;;;;;;;10.38;4.07;;;3.90;99.90;;;;;;6206235;23;20065;-54
2023/11/27 03:23:23;;;;;;;7.70;3.72;;;3.90;99.90;;;;;;6206304;23;20364;-56
2023/11/27 03:25:49;;;;;;;10.02;4.68;;;3.90;99.90;;;;;;6206755;23;20024;-54
2023/11/27 03:28:14;;;;;;;6.75;3.75;;;3.90;99.90;;;;;;6208101;23;20300;-54
2023/11/27 03:30:40;;;;;;;6.70;3.53;;;3.80;99.90;;;;;;6206737;23;20011;-52
2023/11/27 03:33:05;;;;;;;6.32;3.15;;;3.80;99.90;;;;;;6207628;23;20004;-52
2023/11/27 03:35:31;;;;;;;9.10;3.70;;;3.80;99.90;;;;;;6207885;23;20327;-52
2023/11/27 03:37:56;;;;;;;9.98;3.60;;;3.80;99.90;;;;;;6208499;23;20008;-53
2023/11/27 03:40:22;;;;;;;12.45;3.50;;;3.80;99.90;;;;;;6207464;23;20004;-55
2023/11/27 03:42:48;;;;;;;12.10;4.03;;;3.80;99.90;;;;;;6207861;23;20011;-52
2023/11/27 03:45:14;;;;;;;11.77;4.22;;;3.80;99.90;;;;;;6208080;23;20007;-55
2023/11/27 03:47:39;;;;;;;11.43;3.50;;;3.80;99.90;;;;;;6313633;22;20422;-54
2023/11/27 03:50:06;;;;;;;7.13;4.22;;;3.80;99.90;;;;;;6206978;23;20001;-55
2023/11/27 03:52:33;;;;;;;13.65;3.42;;;3.80;99.90;;;;;;6206682;23;20027;-55
2023/11/27 03:54:59;;;;;;;6.82;3.22;;;3.80;99.90;;;;;;6312367;22;20327;-53
2023/11/27 03:57:24;;;;;;;9.98;3.85;;;3.80;99.90;;;;;;6312419;22;20084;-53
2023/11/27 03:59:50;;;;;;;11.48;3.13;;;3.70;99.90;;;;;;6208711;22;20008;-56
2023/11/27 04:02:16;;;;;;;15.27;3.40;;;3.70;99.90;;;;;;6207156;23;20004;-56
2023/11/27 04:04:42;;;;;;;8.52;3.30;;;3.80;99.90;;;;;;6207451;23;20001;-55
2023/11/27 04:07:07;;;;;;;8.88;3.03;;;3.80;99.90;;;;;;6205899;23;20311;-53
2023/11/27 04:09:33;;;;;;;8.40;3.03;;;3.70;99.90;;;;;;6208521;23;20001;-54
2023/11/27 04:12:00;;;;;;;5.18;3.03;;;3.80;99.90;;;;;;6206752;23;20054;-57
2023/11/27 04:14:26;;;;;;;10.55;3.05;;;3.70;99.90;;;;;;6208363;23;20095;-55
2023/11/27 04:16:51;;;;;;;6.85;3.15;;;3.80;99.90;;;;;;6208157;22;20439;-53
2023/11/27 04:19:17;;;;;;;6.63;3.17;;;3.70;99.90;;;;;;6204868;23;20423;-56
2023/11/27 04:21:43;;;;;;;9.90;3.40;;;3.70;99.90;;;;;;6207574;23;20001;-55
2023/11/27 04:24:08;;;;;;;10.02;3.30;;;3.70;99.90;;;;;;6313086;22;20004;-59
2023/11/27 04:26:34;;;;;;;9.32;3.83;;;3.70;99.90;;;;;;6208535;23;20001;-54
2023/11/27 04:29:00;;;;;;;9.48;4.13;;;3.70;99.90;;;;;;6207492;23;19996;-54
2023/11/27 04:31:25;;;;;;;7.00;3.20;;;3.70;99.90;;;;;;6208719;23;20057;-56
2023/11/27 04:33:51;;;;;;;10.82;3.92;;;3.70;99.90;;;;;;6207887;23;20024;-55
2023/11/27 04:36:19;;;;;;;8.88;3.00;;;3.70;99.90;;;;;;6208474;23;20027;-55
2023/11/27 04:38:45;;;;;;;10.63;3.88;;;3.70;99.90;;;;;;6312626;22;20369;-53
2023/11/27 04:41:12;;;;;;;12.57;4.05;;;3.70;99.90;;;;;;6207666;23;20036;-55
2023/11/27 04:43:37;;;;;;;10.60;3.47;;;3.70;99.90;;;;;;6208868;23;19999;-52
2023/11/27 04:46:07;;;;;;;5.38;3.22;;;3.70;99.90;;;;;;6208032;23;20032;-55
2023/11/27 04:48:33;;;;;;;7.10;3.58;;;3.70;99.90;;;;;;6208104;23;20084;-56
2023/11/27 04:50:59;;;;;;;13.75;3.53;;;3.60;99.90;;;;;;6207847;22;20084;-56
2023/11/27 04:53:25;;;;;;;6.85;3.90;;;3.60;99.90;;;;;;6208356;23;20020;-55
2023/11/27 04:55:50;;;;;;;9.10;3.22;;;3.60;99.90;;;;;;6208172;23;20008;-52
2023/11/27 04:58:16;;;;;;;9.75;3.00;;;3.60;99.90;;;;;;6208156;23;20008;-54
2023/11/27 05:00:41;;;;;;;12.13;3.63;;;3.50;99.90;;;;;;6207731;23;20005;-55
2023/11/27 05:03:07;;;;;;;13.80;3.72;;;3.60;99.90;;;;;;6208297;23;20005;-55
2023/11/27 05:05:33;;;;;;;7.18;3.38;;;3.60;99.90;;;;;;6208151;23;20050;-57
2023/11/27 05:07:58;;;;;;;17.08;3.17;;;3.50;99.90;;;;;;6208536;23;20000;-53
2023/11/27 05:10:24;;;;;;;8.32;3.03;;;3.60;99.90;;;;;;6206720;23;20036;-56
2023/11/27 05:12:50;;;;;;;3.85;2.72;;;3.60;99.90;;;;;;6208263;23;20004;-54
2023/11/27 05:15:15;;;;;;;7.05;2.92;;;3.60;99.90;;;;;;6208009;23;20328;-56
2023/11/27 05:17:41;;;;;;;5.22;2.78;;;3.60;99.90;;;;;;6312588;22;20020;-56
2023/11/27 05:20:09;;;;;;;6.28;2.78;;;3.60;99.90;;;;;;6207044;23;20354;-55
2023/11/27 05:22:34;;;;;;;11.68;3.08;;;3.50;99.90;;;;;;6208096;23;20384;-55
2023/11/27 05:25:00;;;;;;;6.85;2.70;;;3.60;99.90;;;;;;6208546;23;20002;-56
2023/11/27 05:27:25;;;;;;;8.68;2.88;;;3.60;99.90;;;;;;6208545;23;20000;-55
2023/11/27 05:29:51;;;;;;;8.70;2.63;;;3.50;99.90;;;;;;6207566;23;20012;-54
2023/11/27 05:32:17;;;;;;;7.28;2.97;;;3.50;99.90;;;;;;6208249;23;20073;-55
2023/11/27 05:34:42;;;;;;;8.38;2.92;;;3.50;99.90;;;;;;6207521;23;20049;-55
2023/11/27 05:37:08;;;;;;;13.25;3.05;;;3.50;99.90;;;;;;6208314;23;20038;-55
2023/11/27 05:39:40;;;;;;;6.82;2.75;;;3.50;99.90;;;;;;6207677;23;20008;-56
2023/11/27 05:42:11;;;;;;;10.38;3.50;;;3.60;99.90;;;;;;6207231;23;20079;-55
2023/11/27 05:44:37;;;;;;;7.95;3.33;;;3.60;99.90;;;;;;6208291;23;20431;-56
2023/11/27 05:47:03;;;;;;;12.48;3.15;;;3.60;99.90;;;;;;6207624;23;20004;-56
2023/11/27 05:49:31;;;;;;;12.25;3.53;;;3.60;99.90;;;;;;6311423;22;20005;-55
2023/11/27 05:51:57;;;;;;;7.88;3.33;;;3.60;99.90;;;;;;6207606;23;20378;-53
2023/11/27 05:54:24;;;;;;;9.90;3.30;;;3.60;99.90;;;;;;6208153;23;20423;-53
2023/11/27 05:56:50;;;;;;;8.23;3.10;;;3.60;99.90;;;;;;6207458;23;20107;-56
2023/11/27 05:59:16;;;;;;;10.82;3.50;;;3.60;99.90;;;;;;6208383;23;20012;-53
2023/11/27 06:01:42;;;;;;;12.63;3.20;;;3.60;99.90;;;;;;6207326;23;20427;-55
2023/11/27 06:04:08;;;;;;;6.88;3.58;;;3.60;99.90;;;;;;6208207;23;20023;-56
2023/11/27 06:06:34;;;;;;;9.05;3.80;;;3.60;99.90;;;;;;6191375;22;20462;-55
2023/11/27 06:08:59;;;;;;;6.53;3.28;;;3.60;99.90;;;;;;6207125;23;20004;-53
2023/11/27 06:11:25;;;;;;;10.98;3.83;;;3.60;99.90;;;;;;6311889;22;20005;-54
2023/11/27 06:13:51;;;;;;;9.25;3.47;;;3.60;99.90;;;;;;6205989;23;20004;-55
2023/11/27 06:16:16;;;;;;;6.80;2.85;;;3.60;99.90;;;;;;6207425;23;20065;-56
2023/11/27 06:18:42;;;;;;;5.13;3.13;;;3.70;99.90;;;;;;6207600;23;20001;-53
2023/11/27 06:21:10;;;;;;;11.43;3.42;;;3.60;99.90;;;;;;6207551;23;20447;-55
2023/11/27 06:23:36;;;;;;;6.53;2.95;;;3.60;99.90;;;;;;6206368;23;20001;-55
2023/11/27 06:26:02;;;;;;;8.40;2.80;;;3.60;99.90;;;;;;6206767;23;20011;-54
2023/11/27 06:28:27;;;;;;;8.05;2.85;;;3.60;99.90;;;;;;6206686;23;19997;-56
2023/11/27 06:30:54;;;;;;;14.55;3.05;;;3.60;99.90;;;;;;6204942;23;20001;-56
2023/11/27 06:33:20;;;;;;;7.82;2.83;;;3.60;99.90;;;;;;6207846;23;20012;-56
2023/11/27 06:35:46;;;;;;;11.45;3.42;;;3.60;99.90;;;;;;6206043;23;20005;-55
2023/11/27 06:38:12;;;;;;;5.82;2.85;;;3.60;99.90;;;;;;6207345;23;20019;-55
2023/11/27 06:40:39;;;;;;;18.33;4.75;;;3.60;99.90;;;;;;6206670;23;20271;-55
2023/11/27 06:43:05;;;;;;;6.07;3.30;;;3.60;99.90;;;;;;6207550;23;20001;-53
2023/11/27 06:45:30;;;;;;;9.05;3.50;;;3.60;99.90;;;;;;6207849;23;20035;-55
2023/11/27 06:47:56;;;;;;;7.32;3.05;;;3.60;99.90;;;;;;6208168;23;20053;-56
2023/11/27 06:50:21;;;;;;;11.00;2.92;;;3.60;99.90;;;;;;6206889;23;20339;-56
2023/11/27 06:52:47;;;;;;;5.60;2.78;;;3.60;99.90;;;;;;6206222;23;20019;-55
2023/11/27 06:55:13;;;;;;;6.68;2.60;;;3.60;99.90;;;;;;6207941;23;20005;-56
2023/11/27 06:57:39;;;;;;;8.35;3.20;;;3.60;99.90;;;;;;6205171;23;20032;-56
2023/11/27 07:00:10;;;;;;;7.35;3.80;;;3.70;99.90;;;;;;6206352;23;20004;-54
2023/11/27 07:02:36;;;;;;;11.18;3.70;;;3.60;99.90;;;;;;6205516;23;20004;-56
2023/11/27 07:05:02;;;;;;;27.52;12.07;;;3.60;99.90;;;;;;6208951;23;20305;-55
2023/11/27 07:07:27;;;;;;;7.75;4.05;;;3.60;99.90;;;;;;6208091;23;20001;-55
2023/11/27 07:09:56;;;;;;;12.18;3.00;;;3.60;99.90;;;;;;6177539;22;20013;-54
2023/11/27 07:12:22;;;;;;;11.13;3.10;;;3.60;99.90;;;;;;6208494;23;19996;-53
2023/11/27 07:14:48;;;;;;;6.82;2.63;;;3.60;99.90;;;;;;6207846;23;20009;-55
2023/11/27 07:17:14;;;;;;;8.75;3.33;;;3.60;99.90;;;;;;6206068;23;20004;-55
2023/11/27 07:19:40;;;;;;;5.32;3.10;;;3.50;99.90;;;;;;6207868;23;20058;-54
2023/11/27 07:22:07;;;;;;;8.98;3.13;;;3.50;99.90;;;;;;6208992;23;20008;-55
2023/11/27 07:24:32;;;;;;;10.75;3.22;;;3.50;99.90;;;;;;6208110;23;20027;-56
2023/11/27 07:26:58;;;;;;;9.13;3.60;;;3.50;99.90;;;;;;6208700;23;20000;-55
2023/11/27 07:29:24;;;;;;;5.28;2.95;;;3.50;99.90;;;;;;6207419;23;19997;-55
2023/11/27 07:31:49;;;;;;;12.30;3.03;;;3.40;99.90;;;;;;6207593;23;20004;-55
2023/11/27 07:34:15;;;;;;;9.50;2.67;;;3.40;99.90;;;;;;6206936;23;20040;-56
2023/11/27 07:36:41;;;;;;;8.82;2.70;;;3.40;99.90;;;;;;6207974;23;20004;-55
2023/11/27 07:39:12;;;;;;;13.07;3.55;;;3.30;99.90;;;;;;6206308;23;20452;-56
2023/11/27 07:41:38;;;;;;;5.90;2.83;;;3.30;99.90;;;;;;6208238;23;20001;-55
2023/11/27 07:44:04;;;;;;;12.25;3.70;;;3.20;99.90;;;;;;6209034;23;20007;-56
2023/11/27 07:46:30;;;;;;;6.32;3.17;;;3.20;99.90;;;;;;6207470;23;20423;-55
2023/11/27 07:48:56;;;;;;;6.15;3.88;;;3.10;99.90;;;;;;6208506;23;20415;-56
2023/11/27 07:51:22;;;;;;;5.80;3.75;;;3.20;99.90;;;;;;6208085;23;20086;-55
2023/11/27 07:53:48;;;;;;;7.57;3.05;;;3.20;99.90;;;;;;6208062;23;20027;-54
2023/11/27 07:56:23;;;;;;;6.32;3.15;;;3.20;99.90;;;;;;6311847;22;20502;-56
2023/11/27 07:58:49;;;;;;;6.13;3.47;;;3.20;99.90;;;;;;6209020;23;20009;-56
2023/11/27 08:01:16;;;;;;;11.20;3.38;;;3.20;99.90;;;;;;6206553;23;20871;-54
2023/11/27 08:03:42;;;;;;;9.50;2.67;;;3.10;99.90;;;;;;6207589;23;20350;-57
2023/11/27 08:06:09;;;;;;;8.95;2.88;;;3.20;99.90;;;;;;6207047;23;20004;-56
2023/11/27 08:08:34;;;;;;;6.07;2.58;;;3.10;99.90;;;;;;6208747;23;20005;-56
2023/11/27 08:11:02;;;;;;;7.13;3.38;;;3.20;99.90;;;;;;6208590;23;20012;-59
2023/11/27 08:13:28;;;;;;;9.45;3.85;;;3.20;99.90;;;;;;6207493;23;20005;-56
2023/11/27 08:15:53;;;;;;;9.02;2.33;;;3.10;99.90;;;;;;6208003;23;20065;-55
2023/11/27 08:18:19;;;;;;;7.30;2.90;;;3.10;99.90;;;;;;6208827;23;20434;-54
2023/11/27 08:20:45;;;;;;;5.28;3.08;;;3.10;99.90;;;;;;6206704;23;20005;-55
2023/11/27 08:23:12;;;;;;;4.15;3.03;;;3.10;99.90;;;;;;6207934;23;20070;-60
2023/11/27 08:25:41;;;;;;;10.77;4.97;;;3.10;99.90;;;;;;6208347;23;20012;-56
2023/11/27 08:28:07;;;;;;;5.35;2.20;;;3.10;99.90;;;;;;6206135;23;20024;-56
2023/11/27 08:30:33;;;;;;;6.10;2.75;;;3.00;99.90;;;;;;6184858;22;20017;-53
2023/11/27 08:32:59;;;;;;;5.05;2.03;;;3.00;99.90;;;;;;6205777;23;19996;-56
2023/11/27 08:35:24;;;;;;;11.73;2.72;;;3.00;99.90;;;;;;6222044;22;20075;-57
2023/11/27 08:37:50;;;;;;;4.18;2.22;;;3.00;99.90;;;;;;6207692;23;20004;-55
2023/11/27 08:40:16;;;;;;;7.50;3.45;;;3.00;99.90;;;;;;6207964;23;20516;-55
2023/11/27 08:42:42;;;;;;;10.48;4.30;;;3.00;99.90;;;;;;6201632;23;20054;-55
2023/11/27 08:45:15;;;;;;;10.65;5.18;;;2.90;99.90;;;;;;6205450;23;20004;-56
2023/11/27 08:47:44;;;;;;;8.88;3.33;;;2.90;99.90;;;;;;6207567;23;20046;-56
2023/11/27 08:50:13;;;;;;;7.57;3.20;;;2.90;99.90;;;;;;6204927;23;19997;-55
2023/11/27 08:52:41;;;;;;;4.05;1.65;;;2.90;99.90;;;;;;6204938;23;20054;-56
2023/11/27 08:55:08;;;;;;;12.45;2.92;;;2.80;99.90;;;;;;6205998;23;20026;-57
2023/11/27 08:57:33;;;;;;;3.08;2.05;;;2.80;99.90;;;;;;6207569;23;20012;-56
2023/11/27 09:00:02;;;;;;;5.25;2.55;;;2.80;99.90;;;;;;6207984;23;20071;-56
2023/11/27 09:02:28;;;;;;;3.20;1.80;;;2.70;99.90;;;;;;6207207;23;20369;-56
2023/11/27 09:04:55;;;;;;;3.35;1.63;;;2.70;99.90;;;;;;6207540;23;20125;-56
2023/11/27 09:07:20;;;;;;;4.25;2.08;;;2.70;99.90;;;;;;6206930;23;20026;-55
2023/11/27 09:09:46;;;;;;;3.10;1.40;;;2.70;99.90;;;;;;6207807;23;20485;-56
2023/11/27 09:12:12;;;;;;;2.22;1.33;;;2.60;99.90;;;;;;6206965;23;20505;-55
2023/11/27 09:14:37;;;;;;;1.38;1.00;;;2.60;99.90;;;;;;6206215;23;20004;-57
2023/11/27 09:17:03;;;;;;;2.05;1.08;;;2.70;99.90;;;;;;6207109;23;20479;-57
2023/11/27 09:19:30;;;;;;;2.72;1.63;;;2.70;99.90;;;;;;6206255;23;20067;-56
2023/11/27 09:21:59;;;;;;;2.00;1.17;;;2.70;99.90;;;;;;6207217;23;20005;-56
2023/11/27 09:24:25;;;;;;;1.83;1.23;;;2.70;99.90;;;;;;6207041;23;20368;-57
2023/11/27 09:26:50;;;;;;;1.13;0.80;;;2.70;99.90;;;;;;6189824;22;20023;-58
2023/11/27 09:29:16;;;;;;;3.13;1.75;;;2.70;99.90;;;;;;6313389;22;20005;-56
2023/11/27 09:31:41;;;;;;;2.30;1.08;;;2.60;99.90;;;;;;6171937;22;20024;-56
2023/11/27 09:34:07;;;;;;;1.80;0.77;;;2.70;99.90;;;;;;6308347;22;20087;-57
2023/11/27 09:36:33;;;;;;;2.35;1.00;;;2.70;99.90;;;;;;6207637;23;20073;-56
2023/11/27 09:38:59;;;;;;;1.80;1.05;;;2.60;99.90;;;;;;6206785;23;20094;-55
2023/11/27 09:41:25;;;;;;;1.38;1.00;;;2.60;99.90;;;;;;6206977;23;20423;-53
2023/11/27 09:43:51;;;;;;;2.08;1.38;;;2.60;99.90;;;;;;6207889;23;20003;-57
2023/11/27 09:46:20;;;;;;;2.03;1.13;;;2.50;99.90;;;;;;6207211;23;19996;-54
2023/11/27 09:48:50;;;;;;;2.00;1.40;;;2.50;99.90;;;;;;6205435;23;20008;-56
2023/11/27 09:51:17;;;;;;;3.63;1.13;;;2.50;99.90;;;;;;6207154;23;20015;-56
2023/11/27 09:53:51;;;;;;;4.10;1.70;;;2.50;99.90;;;;;;6310237;22;20026;-56
2023/11/27 09:56:20;;;;;;;2.20;1.52;;;2.50;99.90;;;;;;6206685;23;20004;-56
2023/11/27 09:58:46;;;;;;;3.47;1.83;;;2.50;99.90;;;;;;6207464;23;20077;-57
2023/11/27 10:01:12;;;;;;;7.60;3.20;;;2.60;99.90;;;;;;6207624;23;20005;-55
2023/11/27 10:03:42;;;;;;;15.02;5.07;;;2.60;99.90;;;;;;6207449;23;20026;-57
2023/11/27 10:06:09;;;;;;;12.60;5.20;;;2.60;99.90;;;;;;6206597;23;20089;-55
2023/11/27 10:08:35;;;;;;;8.18;3.22;;;2.50;99.90;;;;;;6207168;22;20012;-56
2023/11/27 10:11:01;;;;;;;15.80;6.15;;;2.50;99.90;;;;;;6208236;23;20043;-57
2023/11/27 10:13:34;;;;;;;19.08;8.05;;;2.50;99.90;;;;;;6207914;23;20009;-56
2023/11/27 10:16:04;;;;;;;7.53;3.25;;;2.60;99.90;;;;;;6312540;22;20697;-56
2023/11/27 10:18:30;;;;;;;8.50;4.28;;;2.50;99.90;;;;;;6206711;23;20005;-56
2023/11/27 10:20:55;;;;;;;9.55;4.10;;;2.50;99.90;;;;;;6206439;23;20746;-55
2023/11/27 10:23:21;;;;;;;10.95;5.88;;;2.60;99.90;;;;;;6176479;22;20008;-56
2023/11/27 10:25:58;;;;;;;13.23;5.20;;;2.60;99.90;;;;;;6310242;22;20012;-55
2023/11/27 10:28:39;;;;;;;10.68;4.47;;;2.60;99.90;;;;;;6207804;23;20005;-56
2023/11/27 10:31:06;;;;;;;6.10;1.95;;;2.50;99.90;;;;;;6223295;22;20369;-55
2023/11/27 10:33:32;;;;;;;11.07;4.35;;;2.60;99.90;;;;;;6206899;22;20343;-56
2023/11/27 10:35:59;;;;;;;12.88;4.70;;;2.50;99.90;;;;;;6207822;23;20034;-56
2023/11/27 10:38:25;;;;;;;10.40;4.22;;;2.50;99.90;;;;;;6206509;23;20011;-56
2023/11/27 10:40:51;;;;;;;8.60;3.53;;;2.50;99.90;;;;;;6176513;22;20584;-56
2023/11/27 10:43:19;;;;;;;11.57;4.97;;;2.50;99.90;;;;;;6302517;22;20012;-56
2023/11/27 10:45:46;;;;;;;6.53;3.78;;;2.50;99.90;;;;;;6206428;23;20027;-57
2023/11/27 10:48:13;;;;;;;5.18;2.65;;;2.50;99.90;;;;;;6206682;23;20000;-56
2023/11/27 10:50:41;;;;;;;3.10;1.75;;;2.50;99.90;;;;;;6207394;23;20338;-55
2023/11/27 10:53:09;;;;;;;3.17;1.90;;;2.40;99.90;;;;;;6208400;23;20013;-56
2023/11/27 10:55:38;;;;;;;7.95;3.97;;;2.40;99.90;;;;;;6206802;23;20065;-55
2023/11/27 10:58:05;;;;;;;6.57;2.92;;;2.40;99.90;;;;;;6206827;23;20004;-56
2023/11/27 11:00:38;;;;;;;5.88;2.90;;;2.40;99.90;;;;;;6208445;23;20448;-54
2023/11/27 11:03:08;;;;;;;;;;;2.40;99.90;;;;;;6206277;23;19997;-55
2023/11/27 11:06:01;;;;;;;22.15;8.10;;;2.40;99.90;;;;;;6207104;23;19904;-56
2023/11/27 11:08:27;;;;;;;22.20;9.65;;;2.40;99.90;;;;;;6208409;22;20062;-55
2023/11/27 11:10:58;;;;;;;5.95;3.53;;;2.40;99.90;;;;;;6206495;22;20012;-56
2023/11/27 11:13:25;;;;;;;10.25;5.32;;;2.40;99.90;;;;;;6206650;23;20461;-54
2023/11/27 11:16:00;;;;;;;5.45;2.25;;;2.40;99.90;;;;;;6207425;23;20096;-55
2023/11/27 11:18:35;;;;;;;9.80;4.32;;;2.30;99.90;;;;;;6206755;23;20014;-56
2023/11/27 11:21:39;;;;;;;11.95;6.30;;;2.30;99.90;;;;;;6208326;23;20539;-56
2023/11/27 11:24:18;;;;;;;15.43;5.37;;;2.30;99.90;;;;;;6208720;23;20117;-56
2023/11/27 11:26:55;;;;;;;33.88;9.68;;;2.40;99.90;;;;;;6208442;23;20357;-56
2023/11/27 11:29:32;;;;;;;21.60;6.40;;;2.30;99.90;;;;;;6206117;23;20004;-56
2023/11/27 11:32:10;;;;;;;12.35;4.28;;;2.30;99.90;;;;;;6192857;22;20032;-57
2023/11/27 11:34:42;;;;;;;7.25;3.05;;;2.40;99.90;;;;;;6312178;22;20327;-56
2023/11/27 11:37:11;;;;;;;8.98;5.30;;;2.40;99.90;;;;;;6208371;22;20072;-56
2023/11/27 11:39:40;;;;;;;4.63;3.03;;;2.40;99.90;;;;;;6204963;23;20683;-54
2023/11/27 11:42:13;;;;;;;19.40;11.63;;;2.40;99.90;;;;;;6208455;23;20008;-55
2023/11/27 11:44:41;;;;;;;14.60;7.18;;;2.40;99.90;;;;;;6208691;22;20028;-54
2023/11/27 11:47:31;;;;;;;15.82;9.25;;;2.40;99.90;;;;;;6206963;23;20408;-53
2023/11/27 11:50:28;;;;;;;7.85;4.28;;;2.50;99.90;;;;;;6207311;22;20015;-56
2023/11/27 11:52:59;;;;;;;11.45;5.65;;;2.50;99.90;;;;;;6208284;23;20451;-55
2023/11/27 11:55:32;;;;;;;7.40;4.43;;;2.50;99.90;;;;;;6208477;23;20009;-54
2023/11/27 11:58:08;;;;;;;7.82;4.45;;;2.50;99.90;;;;;;6207556;23;20080;-57
2023/11/27 12:00:42;;;;;;;11.60;4.70;;;2.60;99.90;;;;;;6208044;23;20050;-56
2023/11/27 12:03:19;;;;;;;9.63;3.45;;;2.60;99.90;;;;;;6208644;23;19996;-55
2023/11/27 12:05:50;;;;;;;4.68;2.53;;;2.60;99.90;;;;;;6207454;23;20001;-56
2023/11/27 12:08:26;;;;;;;4.22;1.98;;;2.70;99.90;;;;;;6207114;23;20435;-55
2023/11/27 12:10:56;;;;;;;2.33;1.33;;;2.60;99.90;;;;;;6208382;23;20081;-57
2023/11/27 12:13:24;;;;;;;6.03;2.50;;;2.60;99.90;;;;;;6206826;23;20062;-53
2023/11/27 12:15:50;;;;;;;7.05;3.60;;;2.60;99.90;;;;;;6207877;23;20005;-51
2023/11/27 12:18:19;;;;;;;2.80;1.02;;;2.60;99.90;;;;;;6206542;23;20036;-56
2023/11/27 12:20:47;;;;;;;4.70;2.13;;;2.60;99.90;;;;;;6206773;23;20005;-49
2023/11/27 12:23:13;;;;;;;17.60;9.50;;;2.50;99.90;;;;;;6207091;23;20083;-52
2023/11/27 12:25:42;;;;;;;10.57;5.00;;;2.50;99.90;;;;;;6208069;23;20023;-51
2023/11/27 12:28:12;;;;;;;8.30;3.88;;;2.50;99.90;;;;;;6208349;23;20328;-53
2023/11/27 12:30:38;;;;;;;4.13;1.27;;;2.50;99.90;;;;;;6207750;23;20039;-50
2023/11/27 12:33:05;;;;;;;3.00;1.60;;;2.50;99.90;;;;;;6182887;22;20024;-50
2023/11/27 12:35:31;;;;;;;3.67;1.48;;;2.60;99.90;;;;;;6312858;22;20013;-54
2023/11/27 12:38:05;;;;;;;1.92;1.05;;;2.60;99.90;;;;;;6207181;23;20005;-53
2023/11/27 12:40:33;;;;;;;2.75;1.52;;;2.60;99.90;;;;;;6208263;23;20001;-56
2023/11/27 12:43:00;;;;;;;5.03;1.92;;;2.60;99.90;;;;;;6207807;23;19997;-53
2023/11/27 12:45:27;;;;;;;5.00;1.40;;;2.60;99.90;;;;;;6207290;23;20511;-54
2023/11/27 12:47:55;;;;;;;2.58;1.48;;;2.60;99.90;;;;;;6207873;23;20003;-52
2023/11/27 12:50:28;;;;;;;2.10;1.40;;;2.70;99.90;;;;;;6208250;23;20338;-53
2023/11/27 12:53:06;;;;;;;2.92;1.40;;;2.60;99.90;;;;;;6207534;23;20001;-52